Strona główna
METAR-TAF:

METAR-TAF

Lotnisko :

Port lotniczy Bahrajn

Bahrajn, Bahrajn

Szerokość geograficzna: 26-16N, Długość geograficzna: 050-39E, wysokość: 2 m

Aktualna obserwacja pogody

Raport powstał 14 minut temu, godzina 09:00 UTC
Wiatr 11 kt od północno-północny zachód, zmienny między północny zachód i północno-północny wschód
Temperatura 40°C
Wilgotność 36%
Ciśnienie 998 hPa
Widzialność 10 km lub więcej
Brak chmur poniżej 1500 m i brak chmur cumulonimbus

METAR: OBBI 190900Z 34011KT 320V020 CAVOK 40/22 Q0998 NOSIG

czas: 12:14 (09:14 UTC)

Prognoza

Raport powstał 4 godziny i 14 minut temu, godzina 05:00 UTC
Prognoza ważna od 19 godzina 06 UTC do 20 godzina 12 UTC
Wiatr 16 kt od północno-północny zachód
Widzialność 10 km lub więcej
Brak chmur poniżej 1500 m i brak chmur cumulonimbus
Stopniowe zmiany
od 19 godzina 14 UTC do 19 godzina 16 UTC
Wiatr 5 kt od zachodnio-północny zachód

TAF: OBBI 190500Z 1906/2012 34016KT CAVOK BECMG 1914/1916 30005KT

Obserwacja i prognoza pogody dla ponad 4000 lotnisk (raport METAR i TAF).

Dostępne stacje oznaczono żółtymi i czerwonymi punktami na mapie.

Najedź kursorem aby zobaczyć nazwę stacji.

Kliknij aby zobaczyć obserwacje i prognozy pogody.

Aby zmienić mapę: kliknij na zielony przycisk z czarnym krzyżykiem, aby powiększyć; na zielony przycisk z myślnikiem, aby pomniejszyć; na zielone strzałki, aby przejść do map sąsiednich.


METAR-TAF: